Time;durP1;ratioP1;P1;durP2;ratioP2;P2;SDS_P1;SDS_P2;PMS_P1;PMS_P2;Temp;Humidity;BMP_temperature;BMP_pressure;BME280_temperature;BME280_humidity;BME280_pressure;Samples;Min_cycle;Max_cycle;Signal;HPM_P1;HPM_P2
2021/04/09 00:00:21;;;;;;;6.32;4.22;;;;;;;6.68;41.80;100526.34;5074487;28;20113;-77
2021/04/09 00:02:46;;;;;;;6.40;4.13;;;;;;;6.00;41.56;100412.31;5074445;28;20492;-79
2021/04/09 00:05:16;;;;;;;4.57;3.70;;;;;;;6.66;41.86;100520.41;5056760;28;20024;-77
2021/04/09 00:07:42;;;;;;;5.67;3.70;;;;;;;6.37;41.14;100488.72;5056644;28;20381;-77
2021/04/09 00:10:09;;;;;;;5.03;4.18;;;;;;;6.54;41.32;100524.03;5074587;28;20074;-77
2021/04/09 00:12:36;;;;;;;6.30;3.80;;;;;;;6.27;41.46;100477.34;5074472;28;20048;-78
2021/04/09 00:15:05;;;;;;;5.57;4.10;;;;;;;6.59;41.65;100529.75;5056504;28;20055;-77
2021/04/09 00:17:30;;;;;;;5.50;4.20;;;;;;;6.20;41.65;100456.03;5074299;28;20035;-78
2021/04/09 00:19:56;;;;;;;4.55;3.78;;;;;;;6.67;41.49;100535.19;5074626;28;20032;-77
2021/04/09 00:22:21;;;;;;;4.80;3.73;;;;;;;6.34;41.03;100489.81;5056645;28;20262;-77
2021/04/09 00:24:46;;;;;;;5.60;4.00;;;;;;;6.15;41.38;100446.91;5056491;28;20031;-77
2021/04/09 00:27:12;;;;;;;6.47;4.30;;;;;;;6.44;41.05;100512.66;5074437;28;20028;-77
2021/04/09 00:29:37;;;;;;;5.40;4.20;;;;;;;6.48;41.07;100524.56;5074121;28;20350;-78
2021/04/09 00:32:03;;;;;;;6.57;4.50;;;;;;;6.48;41.25;100520.16;5075998;28;20096;-78
2021/04/09 00:34:28;;;;;;;6.30;4.33;;;;;;;6.45;41.48;100514.31;5078052;28;20029;-78
2021/04/09 00:36:54;;;;;;;6.13;4.60;;;;;;;6.62;40.93;100524.25;5060513;28;20029;-78
2021/04/09 00:39:19;;;;;;;6.10;4.07;;;;;;;6.39;41.14;100494.69;5078240;28;20031;-77
2021/04/09 00:41:45;;;;;;;7.47;4.10;;;;;;;6.41;41.21;100494.56;5060494;28;20032;-78
2021/04/09 00:44:11;;;;;;;4.97;3.83;;;;;;;6.59;41.11;100514.84;5078185;28;20024;-78
2021/04/09 00:46:38;;;;;;;6.07;3.83;;;;;;;6.56;41.66;100527.38;5060161;28;20032;-78
2021/04/09 00:49:04;;;;;;;5.13;4.23;;;;;;;6.15;41.53;100476.56;5077939;28;20040;-80
2021/04/09 00:51:31;;;;;;;6.73;4.47;;;;;;;6.44;41.68;100516.13;5077716;28;20079;-77
2021/04/09 00:53:58;;;;;;;6.72;4.97;;;;;;;6.22;41.57;100455.91;5077858;28;20057;-80
2021/04/09 00:56:27;;;;;;;5.63;4.30;;;;;;;6.60;41.56;100532.25;5077739;28;20082;-78
2021/04/09 00:58:55;;;;;;;6.73;4.13;;;;;;;6.34;41.13;100494.22;5078039;28;20024;-77
2021/04/09 01:01:20;;;;;;;6.93;5.20;;;;;;;6.03;41.05;100452.19;5077803;28;20119;-77
2021/04/09 01:03:46;;;;;;;4.90;4.00;;;;;;;6.51;41.22;100529.56;5059978;28;20494;-78
2021/04/09 01:06:12;;;;;;;5.40;4.40;;;;;;;6.42;41.60;100517.19;5077767;28;20036;-77
2021/04/09 01:08:37;;;;;;;6.67;4.43;;;;;;;5.82;41.28;100430.31;5077570;28;20060;-77
2021/04/09 01:11:04;;;;;;;7.50;4.90;;;;;;;6.48;41.35;100540.31;5077681;28;20028;-79
2021/04/09 01:13:30;;;;;;;8.13;4.50;;;;;;;6.49;41.02;100534.09;5077432;28;20028;-78
2021/04/09 01:15:55;;;;;;;6.63;4.30;;;;;;;6.29;41.69;100499.88;5077450;28;20035;-78
2021/04/09 01:18:50;;;;;;;6.50;4.47;;;;;;;6.48;40.77;100538.50;5077583;28;20029;-78
2021/04/09 01:21:41;;;;;;;4.50;3.97;;;;;;;6.05;41.07;100470.44;5077547;28;20028;-78
2021/04/09 01:24:40;;;;;;;5.00;4.20;;;;;;;6.43;40.83;100538.06;5077414;28;20024;-78
2021/04/09 01:27:27;;;;;;;5.97;3.93;;;;;;;6.43;41.47;100531.97;5059603;28;20036;-77
2021/04/09 01:30:40;;;;;;;4.77;4.10;;;;;;;6.36;40.05;100534.28;5077674;28;20054;-77
2021/04/09 01:33:07;;;;;;;6.03;4.10;;;;;;;6.27;41.22;100521.94;5070207;28;20071;-76
2021/04/09 01:35:34;;;;;;;5.17;4.03;;;;;;;6.40;41.60;100533.06;5076987;28;20032;-77
2021/04/09 01:38:04;;;;;;;5.00;3.73;;;;;;;6.32;41.13;100525.00;5059450;28;20055;-79
2021/04/09 01:40:33;;;;;;;5.30;4.23;;;;;;;6.36;41.07;100563.13;5076974;28;20032;-79
2021/04/09 01:43:02;;;;;;;5.80;3.63;;;;;;;6.15;41.03;100508.03;5076255;28;20028;-78
2021/04/09 01:45:29;;;;;;;4.87;3.97;;;;;;;6.35;41.16;100522.97;5078301;28;20033;-76
2021/04/09 01:47:55;;;;;;;5.13;3.87;;;;;;;6.46;40.89;100539.59;5059676;28;20094;-75
2021/04/09 01:50:21;;;;;;;5.53;4.00;;;;;;;6.03;40.84;100490.69;5076673;28;20461;-75
2021/04/09 01:52:50;;;;;;;6.33;4.80;;;;;;;6.42;41.02;100548.69;5076896;28;20067;-76
2021/04/09 01:55:17;;;;;;;5.33;3.93;;;;;;;6.16;41.18;100525.44;5076931;28;20028;-78
2021/04/09 01:57:44;;;;;;;4.78;4.03;;;;;;;6.30;41.00;100551.34;5058882;28;20111;-78
2021/04/09 02:00:14;;;;;;;5.65;4.30;;;;;;;6.05;41.14;100500.09;5076665;28;20024;-77
2021/04/09 02:02:43;;;;;;;6.53;3.83;;;;;;;6.33;40.79;100550.28;5076667;28;20020;-78
2021/04/09 02:05:10;;;;;;;5.10;3.80;;;;;;;5.50;40.94;100409.38;5076671;28;20040;-77
2021/04/09 02:07:37;;;;;;;5.30;3.85;;;;;;;6.21;41.31;100530.31;5058672;28;20032;-77
2021/04/09 02:10:05;;;;;;;7.65;4.05;;;;;;;5.85;41.17;100452.81;5076611;28;20343;-78
2021/04/09 02:12:31;;;;;;;5.23;4.17;;;;;;;6.34;40.89;100539.66;5058597;28;20032;-76
2021/04/09 02:14:57;;;;;;;5.22;4.03;;;;;;;6.14;41.53;100514.25;5076354;28;20350;-78
2021/04/09 02:17:23;;;;;;;6.10;4.00;;;;;;;6.29;41.16;100533.13;5058635;28;20031;-78
2021/04/09 02:19:49;;;;;;;5.70;4.13;;;;;;;6.10;41.33;100512.00;5076341;28;20029;-77
2021/04/09 02:22:14;;;;;;;4.85;3.80;;;;;;;6.29;41.00;100552.31;5076288;28;20107;-77
2021/04/09 02:24:39;;;;;;;7.10;4.00;;;;;;;5.79;41.36;100475.13;5076233;28;20028;-76
2021/04/09 02:27:06;;;;;;;5.90;4.60;;;;;;;5.71;40.98;100460.03;5076185;28;20117;-78
2021/04/09 02:29:32;;;;;;;6.50;4.20;;;;;;;6.17;41.42;100529.72;5076009;28;20035;-78
2021/04/09 02:31:58;;;;;;;6.47;4.03;;;;;;;6.28;41.41;100563.75;5076246;28;20021;-80
2021/04/09 02:34:23;;;;;;;7.67;3.93;;;;;;;6.03;41.10;100528.22;5076239;28;20099;-79
2021/04/09 02:36:50;;;;;;;5.87;4.40;;;;;;;5.89;41.45;100504.03;5058405;28;20449;-77
2021/04/09 02:39:20;;;;;;;5.07;4.47;;;;;;;5.43;41.53;100437.00;5058194;28;20031;-77
2021/04/09 02:41:54;;;;;;;5.50;4.47;;;;;;;6.09;41.37;100550.50;5075839;28;20032;-77
2021/04/09 02:44:20;;;;;;;7.27;4.90;;;;;;;5.77;41.73;100524.19;5075938;28;20032;-78
2021/04/09 02:46:53;;;;;;;5.53;4.77;;;;;;;6.10;41.83;100561.81;5075756;28;20218;-77
2021/04/09 02:49:27;;;;;;;6.00;4.30;;;;;;;5.74;41.68;100519.19;5075822;28;20027;-77
2021/04/09 02:51:55;;;;;;;6.47;4.37;;;;;;;5.89;42.05;100540.72;5075696;28;20044;-78
2021/04/09 02:54:22;;;;;;;4.97;4.37;;;;;;;5.78;42.40;100532.88;5057728;28;20021;-78
2021/04/09 02:56:48;;;;;;;7.93;5.27;;;;;;;5.38;41.68;100467.97;5057710;28;20032;-78
2021/04/09 02:59:15;;;;;;;7.93;6.37;;;;;;;5.95;42.30;100561.25;5057905;28;20040;-78
2021/04/09 03:01:43;;;;;;;8.37;6.40;;;;;;;5.98;42.48;100568.88;5058124;28;20104;-78
2021/04/09 03:04:09;;;;;;;8.40;6.20;;;;;;;5.65;42.91;100533.88;5075542;28;20101;-77
2021/04/09 03:06:41;;;;;;;8.77;7.10;;;;;;;5.73;42.56;100552.44;5075371;28;20124;-77
2021/04/09 03:09:08;;;;;;;8.57;6.13;;;;;;;5.92;42.88;100575.41;5075434;28;20036;-77
2021/04/09 03:11:34;;;;;;;8.03;6.40;;;;;;;5.78;43.31;100574.81;5057459;28;20063;-80
2021/04/09 03:14:01;;;;;;;6.40;5.70;;;;;;;5.54;42.80;100541.75;5075351;28;20028;-77
2021/04/09 03:16:29;;;;;;;8.67;6.10;;;;;;;5.31;42.99;100504.28;5057474;28;20036;-77
2021/04/09 03:18:55;;;;;;;8.60;5.87;;;;;;;5.31;43.09;100508.69;5075191;28;20033;-77
2021/04/09 03:21:20;;;;;;;7.80;5.53;;;;;;;5.37;43.18;100530.00;5075163;28;20339;-78
2021/04/09 03:23:45;;;;;;;8.33;6.07;;;;;;;5.86;43.25;100607.31;5075077;28;20434;-79
2021/04/09 03:26:11;;;;;;;7.50;5.87;;;;;;;5.69;43.39;100581.63;5075032;28;20028;-77
2021/04/09 03:28:37;;;;;;;9.40;5.93;;;;;;;5.29;43.39;100531.53;5074944;28;20032;-76
2021/04/09 03:31:02;;;;;;;9.03;6.37;;;;;;;5.85;43.34;100617.94;5075098;28;20020;-77
2021/04/09 03:33:28;;;;;;;9.97;6.53;;;;;;;5.49;43.47;100574.50;5057146;28;20445;-76
2021/04/09 03:35:53;;;;;;;13.60;7.50;;;;;;;5.71;43.61;100622.47;5057488;28;20029;-79
2021/04/09 03:38:19;;;;;;;12.07;7.63;;;;;;;5.64;43.77;100621.28;5040686;28;20024;-78
2021/04/09 03:40:45;;;;;;;11.07;6.93;;;;;;;5.67;43.79;100628.06;5074730;28;20054;-79
2021/04/09 03:43:12;;;;;;;8.63;6.43;;;;;;;5.07;43.79;100529.72;5057150;28;20490;-77
2021/04/09 03:45:37;;;;;;;7.40;5.63;;;;;;;5.64;44.07;100625.69;5074688;28;20024;-77
2021/04/09 03:48:03;;;;;;;9.63;6.37;;;;;;;5.65;44.23;100637.84;5074800;28;20433;-76
2021/04/09 03:50:28;;;;;;;8.20;6.10;;;;;;;5.56;44.00;100639.38;5074454;28;20055;-78
2021/04/09 03:52:54;;;;;;;7.33;6.00;;;;;;;5.03;43.79;100602.41;5074861;28;20081;-78
2021/04/09 03:55:19;;;;;;;10.07;5.77;;;;;;;5.16;44.01;100594.47;5056926;28;20431;-78
2021/04/09 03:57:45;;;;;;;10.20;6.30;;;;;;;4.88;44.38;100548.63;5074675;28;20347;-79
2021/04/09 04:00:11;;;;;;;8.80;7.03;;;;;;;5.50;44.43;100652.97;5074740;28;20422;-79
2021/04/09 04:02:36;;;;;;;10.17;7.00;;;;;;;5.08;44.19;100584.59;5074544;28;20028;-78
2021/04/09 04:05:03;;;;;;;8.40;6.97;;;;;;;5.30;44.21;100619.63;5074747;28;20021;-78
2021/04/09 04:07:29;;;;;;;8.67;6.23;;;;;;;5.25;44.24;100630.44;5073897;28;20025;-78
2021/04/09 04:09:54;;;;;;;11.13;6.40;;;;;;;5.35;44.40;100622.72;5074712;28;20039;-78
2021/04/09 04:12:20;;;;;;;9.63;7.63;;;;;;;5.56;44.32;100662.13;5056670;28;20054;-78
2021/04/09 04:14:46;;;;;;;11.50;7.00;;;;;;;5.21;44.17;100597.59;5074496;28;20044;-79
2021/04/09 04:17:11;;;;;;;10.43;6.67;;;;;;;5.68;43.81;100675.13;5074902;28;20346;-79
2021/04/09 04:19:37;;;;;;;9.27;6.50;;;;;;;5.63;43.71;100644.97;5076066;28;20044;-78
2021/04/09 04:22:02;;;;;;;8.93;6.83;;;;;;;5.78;43.87;100661.28;5077205;28;20036;-79
2021/04/09 04:24:28;;;;;;;12.83;8.07;;;;;;;5.58;43.46;100621.75;5075097;28;20021;-77
2021/04/09 04:26:53;;;;;;;20.93;12.33;;;;;;;5.75;43.28;100657.13;5074467;28;20516;-75
2021/04/09 04:29:19;;;;;;;17.37;8.27;;;;;;;5.79;43.32;100629.72;5056619;28;20414;-77
2021/04/09 04:31:44;;;;;;;12.40;7.63;;;;;;;5.82;43.24;100641.75;5056409;28;20120;-77
2021/04/09 04:34:10;;;;;;;12.03;8.10;;;;;;;5.87;43.06;100668.44;5074340;28;20036;-77
2021/04/09 04:36:36;;;;;;;11.20;7.90;;;;;;;5.86;42.86;100661.53;5056556;28;20024;-78
2021/04/09 04:39:03;;;;;;;11.10;8.27;;;;;;;5.25;42.76;100566.78;5074415;28;20409;-78
2021/04/09 04:41:28;;;;;;;8.10;6.37;;;;;;;5.22;43.01;100559.16;5074270;28;20422;-77
2021/04/09 04:43:58;;;;;;;11.77;8.60;;;;;;;6.06;42.59;100684.44;5074325;28;20066;-77
2021/04/09 04:46:24;;;;;;;10.23;7.83;;;;;;;5.79;42.24;100642.00;5074312;28;20028;-79
2021/04/09 04:48:49;;;;;;;10.80;8.07;;;;;;;6.08;42.57;100684.31;5074320;28;20323;-78
2021/04/09 04:51:15;;;;;;;11.50;7.77;;;;;;;6.00;43.10;100688.38;5056221;28;20054;-76
2021/04/09 04:53:41;;;;;;;11.07;7.77;;;;;;;6.14;42.67;100716.13;5074004;28;20032;-78
2021/04/09 04:56:06;;;;;;;9.53;7.70;;;;;;;6.14;43.13;100691.69;5074043;28;20041;-77
2021/04/09 04:58:32;;;;;;;12.03;7.60;;;;;;;5.82;42.89;100642.59;5073865;28;20419;-78
2021/04/09 05:00:57;;;;;;;9.50;6.87;;;;;;;6.18;42.95;100701.81;5074211;28;20029;-81
2021/04/09 05:03:22;;;;;;;11.50;8.07;;;;;;;6.00;42.88;100663.94;5073952;28;20354;-78
2021/04/09 05:05:48;;;;;;;11.60;8.37;;;;;;;5.85;42.61;100644.97;5053668;28;20052;-78
2021/04/09 05:08:13;;;;;;;9.50;7.17;;;;;;;6.31;42.82;100713.00;5062253;28;20032;-78
2021/04/09 05:10:38;;;;;;;14.37;10.07;;;;;;;5.48;42.89;100573.66;5073022;28;20415;-76
2021/04/09 05:13:04;;;;;;;18.10;10.50;;;;;;;6.35;42.73;100714.44;5073868;28;20103;-76
2021/04/09 05:15:29;;;;;;;12.60;8.30;;;;;;;6.20;42.79;100691.22;5073741;28;20028;-76
2021/04/09 05:17:55;;;;;;;12.17;8.03;;;;;;;6.43;42.92;100713.81;5074277;28;20033;-78
2021/04/09 05:20:20;;;;;;;11.27;7.20;;;;;;;6.34;42.84;100706.69;5076562;28;20054;-78
2021/04/09 05:22:46;;;;;;;12.27;6.80;;;;;;;6.13;42.69;100680.38;5057578;28;20029;-77
2021/04/09 05:25:11;;;;;;;8.43;6.73;;;;;;;6.30;42.93;100711.34;5069550;28;20446;-79
2021/04/09 05:27:37;;;;;;;11.23;7.43;;;;;;;5.88;42.66;100638.66;5057366;28;20111;-78
2021/04/09 05:30:03;;;;;;;11.57;6.93;;;;;;;6.23;42.63;100681.31;5057250;28;20025;-77
2021/04/09 05:32:29;;;;;;;9.90;6.80;;;;;;;6.10;42.18;100672.75;5057330;28;20032;-78
2021/04/09 05:34:54;;;;;;;10.83;7.07;;;;;;;6.36;42.56;100716.09;5057080;28;20029;-76
2021/04/09 05:37:20;;;;;;;10.70;7.60;;;;;;;5.85;42.56;100618.75;5039395;28;20036;-78
2021/04/09 05:39:45;;;;;;;12.20;7.50;;;;;;;6.47;42.26;100706.53;5056755;28;20036;-78
2021/04/09 05:42:11;;;;;;;11.10;8.33;;;;;;;6.57;42.72;100724.03;5074543;28;20437;-78
2021/04/09 05:44:36;;;;;;;12.00;10.13;;;;;;;6.61;42.26;100729.88;5076848;28;20055;-78
2021/04/09 05:47:07;;;;;;;15.27;9.10;;;;;;;6.46;41.83;100700.47;5057486;28;20422;-77
2021/04/09 05:49:33;;;;;;;12.10;8.18;;;;;;;6.05;42.09;100623.31;5076551;28;20032;-76
2021/04/09 05:51:58;;;;;;;10.13;7.47;;;;;;;6.21;41.88;100661.41;5076337;28;20417;-76
2021/04/09 05:54:24;;;;;;;11.03;8.40;;;;;;;6.03;41.89;100614.75;5039938;28;20025;-76
2021/04/09 05:56:49;;;;;;;12.83;9.13;;;;;;;6.67;41.81;100703.13;5049442;28;20036;-76
2021/04/09 05:59:15;;;;;;;10.47;7.13;;;;;;;6.80;41.75;100739.75;5066452;28;20041;-75
2021/04/09 06:01:40;;;;;;;10.03;7.37;;;;;;;6.58;42.09;100703.88;5038561;28;20473;-76
2021/04/09 06:04:06;;;;;;;5.93;5.27;;;;;;;6.70;41.73;100708.16;5073685;28;20063;-76
2021/04/09 06:06:32;;;;;;;7.53;6.73;;;;;;;6.74;41.13;100709.59;5067239;28;20028;-76
2021/04/09 06:08:57;;;;;;;8.20;6.00;;;;;;;6.90;41.15;100744.13;5059816;28;20029;-76
2021/04/09 06:11:23;;;;;;;10.40;7.33;;;;;;;6.69;40.97;100690.75;5062093;28;20115;-76
2021/04/09 06:13:48;;;;;;;8.43;6.83;;;;;;;6.91;40.76;100744.97;5076346;28;20438;-77
2021/04/09 06:16:13;;;;;;;8.07;5.77;;;;;;;6.94;41.67;100745.53;5059245;28;20025;-76
2021/04/09 06:18:39;;;;;;;7.17;5.77;;;;;;;6.78;41.05;100703.13;5056313;28;20320;-77
2021/04/09 06:21:04;;;;;;;6.77;6.07;;;;;;;7.13;40.57;100744.03;5056438;28;20032;-78
2021/04/09 06:23:30;;;;;;;9.17;6.13;;;;;;;6.82;41.16;100698.47;5038706;28;20100;-78
2021/04/09 06:25:55;;;;;;;9.47;6.93;;;;;;;7.18;41.05;100752.34;5038136;28;20485;-78
2021/04/09 06:28:21;;;;;;;10.70;7.33;;;;;;;7.11;40.38;100738.91;5071633;28;20028;-78
2021/04/09 06:30:46;;;;;;;7.43;5.88;;;;;;;7.30;40.56;100767.94;5075306;28;20032;-78
2021/04/09 06:33:11;;;;;;;8.53;5.73;;;;;;;7.36;40.21;100765.75;5075690;28;20070;-78
2021/04/09 06:35:37;;;;;;;14.23;7.43;;;;;;;7.48;40.62;100764.78;5075883;28;20021;-77
2021/04/09 06:38:03;;;;;;;7.47;5.00;;;;;;;7.44;40.04;100743.16;5076014;28;20442;-78
2021/04/09 06:40:28;;;;;;;11.13;5.97;;;;;;;7.54;40.06;100759.84;5040925;28;20070;-77
2021/04/09 06:42:58;;;;;;;8.20;4.85;;;;;;;7.56;39.24;100757.06;5038900;28;20451;-78
2021/04/09 06:45:24;;;;;;;8.10;5.70;;;;;;;7.53;40.06;100757.34;5063854;28;20457;-78
2021/04/09 06:47:51;;;;;;;7.23;4.90;;;;;;;7.41;39.67;100739.94;5073980;28;20040;-78
2021/04/09 06:50:17;;;;;;;7.50;5.05;;;;;;;7.51;39.18;100751.38;5057485;28;20091;-77
2021/04/09 06:52:43;;;;;;;10.27;4.75;;;;;;;7.08;38.97;100664.78;5075230;28;20427;-77
2021/04/09 06:55:09;;;;;;;9.02;5.38;;;;;;;7.47;39.03;100729.78;5072212;28;20123;-77
2021/04/09 06:57:35;;;;;;;6.50;4.82;;;;;;;7.91;38.68;100783.00;5073242;28;20056;-77
2021/04/09 07:00:11;;;;;;;9.25;5.20;;;;;;;7.59;37.72;100720.84;5075509;28;20035;-76
2021/04/09 07:02:37;;;;;;;8.88;4.80;;;;;;;8.05;38.59;100787.09;5060939;28;20072;-75
2021/04/09 07:05:03;;;;;;;6.95;5.05;;;;;;;7.45;38.60;100667.81;5070991;28;20411;-77
2021/04/09 07:07:29;;;;;;;11.38;5.05;;;;;;;8.21;38.18;100790.09;5057450;28;20036;-78
2021/04/09 07:09:55;;;;;;;8.75;6.05;;;;;;;8.23;37.52;100789.00;5058070;28;20093;-76
2021/04/09 07:12:25;;;;;;;9.88;6.30;;;;;;;8.14;37.72;100758.19;5057481;28;20025;-76
2021/04/09 07:14:59;;;;;;;8.10;5.00;;;;;;;8.32;37.52;100768.94;5055447;28;20115;-77
2021/04/09 07:17:30;;;;;;;6.40;4.78;;;;;;;8.06;38.10;100730.88;5065224;28;20048;-75
2021/04/09 07:20:20;;;;;;;8.32;4.95;;;;;;;8.49;36.95;100791.19;5049453;28;20067;-77
2021/04/09 07:22:54;;;;;;;7.05;4.28;;;;;;;8.21;36.44;100756.72;5065617;28;20040;-77
2021/04/09 07:25:33;;;;;;;7.25;4.07;;;;;;;8.64;37.27;100804.81;5053153;28;20017;-78
2021/04/09 07:28:24;;;;;;;6.43;4.47;;;;;;;8.70;36.47;100807.75;5070433;28;20864;-77
2021/04/09 07:30:53;;;;;;;8.93;4.90;;;;;;;8.69;36.88;100798.19;5070826;28;20051;-75
2021/04/09 07:33:26;;;;;;;6.68;3.88;;;;;;;8.81;36.77;100819.97;5073411;28;20451;-75
2021/04/09 07:35:54;;;;;;;7.55;4.50;;;;;;;8.89;36.36;100806.94;5055241;28;20028;-77
2021/04/09 07:38:24;;;;;;;5.30;3.47;;;;;;;9.00;35.83;100811.28;5054772;28;20036;-76
2021/04/09 07:40:56;;;;;;;6.68;4.15;;;;;;;8.61;36.20;100724.31;5072691;28;20044;-75
2021/04/09 07:43:22;;;;;;;9.55;5.00;;;;;;;8.55;36.24;100723.06;5072940;28;20036;-76
2021/04/09 07:45:53;;;;;;;7.20;3.78;;;;;;;9.17;36.22;100816.72;5074476;28;20021;-77
2021/04/09 07:48:18;;;;;;;7.13;4.22;;;;;;;9.32;36.14;100811.03;5073703;28;20029;-83
2021/04/09 07:50:50;;;;;;;5.78;3.78;;;;;;;8.98;36.02;100736.84;5054372;28;20045;-76
2021/04/09 07:53:17;;;;;;;7.65;5.00;;;;;;;9.39;36.49;100806.88;5072494;28;20043;-76
2021/04/09 07:55:43;;;;;;;6.13;4.57;;;;;;;9.42;36.57;100803.94;5071984;28;20037;-77
2021/04/09 07:58:15;;;;;;;5.95;4.20;;;;;;;9.49;36.16;100815.59;5064524;28;20029;-78
2021/04/09 08:00:41;;;;;;;5.90;4.05;;;;;;;9.62;36.29;100820.59;5055799;28;20035;-78
2021/04/09 08:03:06;;;;;;;4.82;3.72;;;;;;;9.62;36.14;100831.97;5073882;28;20040;-77
2021/04/09 08:05:32;;;;;;;7.35;4.68;;;;;;;9.57;34.95;100819.19;5054547;28;20094;-76
2021/04/09 08:07:58;;;;;;;5.88;4.18;;;;;;;9.59;35.62;100818.22;5064529;28;20081;-78
2021/04/09 08:10:32;;;;;;;8.73;4.03;;;;;;;9.48;35.68;100782.31;5068493;28;20036;-76
2021/04/09 08:12:59;;;;;;;7.75;4.60;;;;;;;9.81;35.83;100804.75;5059108;28;20031;-76
2021/04/09 08:15:32;;;;;;;6.13;3.58;;;;;;;9.38;35.45;100718.22;5071320;28;20028;-76
2021/04/09 08:18:11;;;;;;;5.72;3.58;;;;;;;9.52;32.49;100747.59;5046546;28;20033;-77
2021/04/09 08:20:43;;;;;;;4.05;3.63;;;;;;;9.96;34.34;100808.59;5073258;28;20074;-76
2021/04/09 08:23:12;;;;;;;5.97;4.22;;;;;;;9.74;35.00;100756.19;5074166;28;20035;-76
2021/04/09 08:25:39;;;;;;;10.35;5.70;;;;;;;9.42;35.03;100694.06;5056187;28;20047;-76
2021/04/09 08:28:07;;;;;;;7.53;4.38;;;;;;;10.11;35.21;100782.59;5061522;28;20035;-76
2021/04/09 08:30:33;;;;;;;5.78;4.18;;;;;;;10.34;34.99;100815.59;5073061;28;20032;-75
2021/04/09 08:32:59;;;;;;;6.80;4.70;;;;;;;10.21;34.75;100777.31;5053460;28;20033;-76
2021/04/09 08:35:26;;;;;;;5.10;4.57;;;;;;;10.49;34.70;100822.06;5058337;28;20092;-76
2021/04/09 08:37:54;;;;;;;9.00;4.43;;;;;;;10.68;34.62;100813.22;5057379;28;20056;-76
2021/04/09 08:40:20;;;;;;;5.68;5.07;;;;;;;10.63;34.30;100838.41;5072247;28;20419;-76
2021/04/09 08:42:46;;;;;;;5.25;4.20;;;;;;;10.58;34.16;100798.41;5055410;28;20048;-76
2021/04/09 08:45:13;;;;;;;5.68;3.75;;;;;;;10.65;34.07;100778.34;5068725;28;20342;-77
2021/04/09 08:47:40;;;;;;;4.68;4.07;;;;;;;10.71;34.53;100762.75;5055931;28;20032;-76
2021/04/09 08:50:11;;;;;;;4.28;3.67;;;;;;;10.77;33.40;100753.38;5047620;28;20378;-76
2021/04/09 08:52:45;;;;;;;3.65;3.35;;;;;;;11.41;32.59;100813.97;5052642;28;20039;-76
2021/04/09 08:55:13;;;;;;;5.53;3.70;;;;;;;11.53;33.45;100822.50;5045050;28;20025;-76
2021/04/09 08:57:44;;;;;;;4.97;3.13;;;;;;;11.86;32.48;100818.31;5053965;28;20111;-76
2021/04/09 09:00:10;;;;;;;9.15;3.80;;;;;;;12.01;32.27;100805.38;5038476;28;20036;-75
2021/04/09 09:02:52;;;;;;;4.13;3.72;;;;;;;12.32;32.02;100819.78;5054828;28;20346;-76
2021/04/09 09:05:23;;;;;;;7.05;4.75;;;;;;;12.42;32.08;100814.34;5033980;28;20028;-76
2021/04/09 09:07:51;;;;;;;6.28;4.38;;;;;;;12.39;31.53;100819.97;5044830;28;20048;-78
2021/04/09 09:10:22;;;;;;;5.45;4.00;;;;;;;12.52;30.75;100825.66;5028271;28;20036;-76
2021/04/09 09:13:03;;;;;;;5.07;3.13;;;;;;;12.64;28.76;100816.47;5039369;28;20094;-77
2021/04/09 09:15:41;;;;;;;5.97;3.17;;;;;;;12.72;29.09;100810.38;5057356;28;20482;-77
2021/04/09 09:18:18;;;;;;;6.05;3.97;;;;;;;12.81;30.16;100803.25;5039636;28;20040;-76
2021/04/09 09:21:09;;;;;;;5.78;4.22;;;;;;;12.91;28.69;100817.22;5057212;28;20029;-78
2021/04/09 09:23:57;;;;;;;4.18;2.92;;;;;;;12.94;28.16;100820.38;5039325;28;20381;-79
2021/04/09 09:26:23;;;;;;;4.68;2.90;;;;;;;13.04;28.90;100813.09;5037192;28;20375;-78
2021/04/09 09:29:11;;;;;;;6.35;3.25;;;;;;;13.21;27.64;100807.84;5038344;28;20439;-80
2021/04/09 09:32:04;;;;;;;4.68;3.30;;;;;;;13.38;28.93;100806.88;5036991;28;20033;-77
2021/04/09 09:34:32;;;;;;;4.32;3.22;;;;;;;13.65;28.97;100813.69;5019713;28;20057;-77
2021/04/09 09:37:13;;;;;;;5.60;3.15;;;;;;;13.96;28.69;100806.69;5019270;28;20032;-77
2021/04/09 09:39:50;;;;;;;4.22;3.20;;;;;;;14.23;28.23;100804.66;5029430;28;20025;-77
2021/04/09 09:42:21;;;;;;;6.07;3.42;;;;;;;14.36;27.13;100804.09;5036832;28;20040;-77
2021/04/09 09:44:48;;;;;;;3.85;2.63;;;;;;;13.68;27.29;100762.94;5035649;28;20116;-78
2021/04/09 09:47:14;;;;;;;3.00;2.50;;;;;;;13.93;26.88;100807.00;5055088;28;20037;-78
2021/04/09 09:50:00;;;;;;;2.67;2.03;;;;;;;13.67;26.35;100804.56;5038814;28;20029;-78
2021/04/09 09:52:38;;;;;;;3.72;2.70;;;;;;;13.80;26.75;100806.69;5058037;28;20024;-77
2021/04/09 09:55:10;;;;;;;3.42;2.30;;;;;;;13.58;26.40;100718.00;5053716;28;20021;-77
2021/04/09 09:58:10;;;;;;;2.70;2.50;;;;;;;14.48;26.69;100784.97;5056723;28;20025;-78
2021/04/09 10:00:36;;;;;;;4.20;3.10;;;;;;;14.86;26.08;100807.25;5044313;28;20061;-77
2021/04/09 10:03:17;;;;;;;5.20;2.60;;;;;;;14.44;24.17;100709.28;5053173;28;20449;-81
2021/04/09 10:05:48;;;;;;;5.47;3.22;;;;;;;15.32;25.49;100798.47;5047597;28;20074;-77
2021/04/09 10:08:14;;;;;;;3.92;2.58;;;;;;;15.29;25.75;100764.22;5062176;28;20029;-77
2021/04/09 10:10:53;;;;;;;3.67;2.80;;;;;;;14.82;24.91;100757.22;5056992;28;20031;-77
2021/04/09 10:13:31;;;;;;;3.85;2.92;;;;;;;14.35;26.04;100779.34;5062279;28;20110;-78
2021/04/09 10:16:08;;;;;;;7.90;3.90;;;;;;;14.16;25.96;100798.34;5054558;28;20039;-76
2021/04/09 10:18:34;;;;;;;4.75;3.00;;;;;;;14.30;26.31;100781.72;5043584;28;20107;-77
2021/04/09 10:21:18;;;;;;;3.63;3.13;;;;;;;14.88;25.25;100797.25;5044960;28;20036;-77
2021/04/09 10:23:49;;;;;;;2.85;2.53;;;;;;;15.22;25.79;100788.88;5030017;28;20104;-79
2021/04/09 10:26:16;;;;;;;2.80;2.35;;;;;;;15.23;25.40;100728.53;5042341;28;20100;-78
2021/04/09 10:28:42;;;;;;;2.65;2.30;;;;;;;15.22;25.43;100748.16;5038474;28;20170;-77
2021/04/09 10:31:15;;;;;;;4.28;2.53;;;;;;;15.15;25.75;100784.44;5064900;28;20017;-77
2021/04/09 10:33:43;;;;;;;3.95;2.50;;;;;;;14.68;26.07;100764.13;5055650;28;20115;-77
2021/04/09 10:36:26;;;;;;;3.60;2.88;;;;;;;14.08;26.60;100727.47;5072500;28;20029;-77
2021/04/09 10:38:53;;;;;;;5.15;2.50;;;;;;;14.87;26.67;100784.97;5037141;28;20470;-77
2021/04/09 10:41:24;;;;;;;3.25;2.40;;;;;;;15.22;24.01;100791.53;5053695;28;20030;-78
2021/04/09 10:44:02;;;;;;;3.67;2.05;;;;;;;14.29;23.87;100687.06;5061005;28;20106;-77
2021/04/09 10:46:32;;;;;;;4.45;2.92;;;;;;;14.54;25.86;100773.66;5052467;28;20036;-78
2021/04/09 10:49:25;;;;;;;6.28;2.97;;;;;;;14.75;25.14;100785.50;5045098;28;20024;-77
2021/04/09 10:51:53;;;;;;;4.03;2.22;;;;;;;15.36;25.44;100771.31;5071809;28;20078;-77
2021/04/09 10:54:21;;;;;;;4.00;2.25;;;;;;;15.70;24.65;100743.44;5056248;28;20032;-77
2021/04/09 10:56:54;;;;;;;5.07;2.28;;;;;;;16.16;23.83;100749.44;5072400;28;20103;-79
2021/04/09 10:59:27;;;;;;;3.33;2.47;;;;;;;16.40;24.31;100773.13;5062954;28;20028;-77
2021/04/09 11:01:53;;;;;;;6.78;3.63;;;;;;;16.48;24.10;100767.72;5075010;28;20047;-77
2021/04/09 11:04:19;;;;;;;4.00;3.40;;;;;;;16.25;24.32;100724.34;5075065;28;20028;-78
2021/04/09 11:06:53;;;;;;;2.78;2.20;;;;;;;15.91;24.56;100718.75;5057291;28;20126;-77
2021/04/09 11:09:19;;;;;;;3.38;2.22;;;;;;;15.47;24.77;100754.09;5075196;28;20095;-79
2021/04/09 11:11:45;;;;;;;2.80;2.42;;;;;;;15.04;24.87;100747.63;5075176;28;20024;-77
2021/04/09 11:14:22;;;;;;;4.93;2.70;;;;;;;14.88;25.29;100768.00;5075064;28;20484;-77
2021/04/09 11:16:56;;;;;;;3.55;2.30;;;;;;;15.16;25.50;100775.47;5072087;28;20032;-77
2021/04/09 11:19:21;;;;;;;4.13;3.20;;;;;;;15.57;25.40;100767.97;5048118;28;20016;-78
2021/04/09 11:21:49;;;;;;;2.80;2.50;;;;;;;15.28;24.62;100768.72;5056101;28;20028;-78
2021/04/09 11:24:21;;;;;;;2.58;2.33;;;;;;;14.66;25.15;100720.09;5074949;28;20430;-80
2021/04/09 11:26:47;;;;;;;4.82;2.80;;;;;;;14.07;25.32;100670.06;5059207;28;20410;-78
2021/04/09 11:29:21;;;;;;;8.73;3.63;;;;;;;14.39;24.95;100769.22;5054583;28;20060;-78
2021/04/09 11:31:46;;;;;;;2.97;2.00;;;;;;;13.41;26.09;100650.03;5065045;28;20024;-78
2021/04/09 11:34:12;;;;;;;4.65;2.25;;;;;;;13.29;26.27;100656.66;5051253;28;20166;-77
2021/04/09 11:36:40;;;;;;;2.83;2.50;;;;;;;13.78;26.07;100758.25;5061824;28;20379;-79